createdAt,value
2022-09-07T00:00:42.747Z,86.63
2022-09-07T00:03:11.862Z,86.39
2022-09-07T00:05:42.854Z,86.13
2022-09-07T00:08:10.387Z,85.96
2022-09-07T00:10:38.062Z,85.16
2022-09-07T00:13:06.205Z,84.55
2022-09-07T00:15:34.334Z,85.53
2022-09-07T00:18:01.900Z,86.97
2022-09-07T00:20:30.828Z,86.15
2022-09-07T00:22:58.422Z,85.56
2022-09-07T00:25:26.078Z,87.14
2022-09-07T00:27:53.609Z,86.56
2022-09-07T00:30:21.119Z,86.08
2022-09-07T00:32:48.698Z,88.07
2022-09-07T00:35:16.309Z,87.72
2022-09-07T00:37:45.155Z,87.13
2022-09-07T00:40:12.746Z,86.48
2022-09-07T00:42:40.350Z,88.10
2022-09-07T00:45:11.312Z,87.54
2022-09-07T00:47:43.389Z,86.27
2022-09-07T00:50:15.747Z,86.06
2022-09-07T00:52:45.819Z,85.55
2022-09-07T00:55:15.745Z,86.11
2022-09-07T00:57:46.763Z,87.05
2022-09-07T01:00:14.806Z,88.65
2022-09-07T01:02:42.614Z,89.97
2022-09-07T01:05:17.349Z,89.43
2022-09-07T01:07:46.989Z,89.69
2022-09-07T01:10:14.572Z,89.39
2022-09-07T01:12:42.107Z,88.75
2022-09-07T01:15:10.446Z,87.22
2022-09-07T01:17:46.918Z,87.15
2022-09-07T01:20:49.497Z,85.21
2022-09-07T01:24:01.930Z,84.85
2022-09-07T01:27:18.916Z,86.16
2022-09-07T01:29:53.279Z,85.77
2022-09-07T01:32:27.746Z,84.32
2022-09-07T01:34:55.483Z,83.23
2022-09-07T01:37:27.218Z,83.75
2022-09-07T01:39:58.664Z,83.27
2022-09-07T01:42:29.586Z,85.08
2022-09-07T01:45:01.410Z,87.14
2022-09-07T01:47:34.965Z,88.15
2022-09-07T01:50:07.747Z,89.26
2022-09-07T01:52:39.225Z,90.01
2022-09-07T01:55:11.162Z,89.96
2022-09-07T01:57:42.684Z,90.81
2022-09-07T02:00:14.334Z,91.09
2022-09-07T02:02:45.074Z,91.74
2022-09-07T02:05:15.683Z,92.09
2022-09-07T02:07:46.365Z,91.92
2022-09-07T02:10:17.520Z,91.64
2022-09-07T02:12:48.269Z,91.47
2022-09-07T02:15:20.327Z,91.75
2022-09-07T02:17:50.758Z,89.09
2022-09-07T02:20:21.307Z,88.15
2022-09-07T02:22:51.043Z,85.47
2022-09-07T02:25:23.132Z,86.77
2022-09-07T02:27:52.842Z,85.74
2022-09-07T02:30:21.825Z,86.30
2022-09-07T02:32:49.921Z,89.09
2022-09-07T02:35:17.706Z,90.98
2022-09-07T02:37:46.583Z,90.91
2022-09-07T02:40:14.747Z,91.14
2022-09-07T02:42:42.857Z,91.42
2022-09-07T02:45:12.127Z,90.78
2022-09-07T02:47:51.020Z,89.36
2022-09-07T02:50:38.699Z,89.30
2022-09-07T02:53:36.060Z,89.79
2022-09-07T02:56:10.690Z,88.86
2022-09-07T02:58:45.813Z,89.06
2022-09-07T03:01:21.133Z,88.83
2022-09-07T03:03:55.497Z,88.19
2022-09-07T03:06:26.955Z,88.01
2022-09-07T03:08:56.984Z,87.60
2022-09-07T03:11:24.548Z,86.93
2022-09-07T03:13:52.121Z,86.60
2022-09-07T03:16:19.740Z,88.62
2022-09-07T03:18:47.369Z,88.11
2022-09-07T03:21:16.255Z,88.93
2022-09-07T03:23:43.758Z,89.36
2022-09-07T03:26:21.516Z,89.18
2022-09-07T03:28:49.056Z,88.79
2022-09-07T03:31:16.597Z,88.74
2022-09-07T03:33:44.265Z,89.25
2022-09-07T03:36:11.813Z,89.43
2022-09-07T03:38:40.747Z,88.89
2022-09-07T03:41:08.881Z,87.42
2022-09-07T03:43:36.683Z,85.75
2022-09-07T03:46:06.749Z,86.97
2022-09-07T03:48:35.407Z,87.16
2022-09-07T03:51:04.702Z,86.34
2022-09-07T03:53:32.834Z,85.29
2022-09-07T03:56:03.385Z,83.73
2022-09-07T03:58:32.289Z,83.87
2022-09-07T04:01:01.300Z,85.41
2022-09-07T04:03:28.842Z,85.87
2022-09-07T04:05:57.267Z,86.72
2022-09-07T04:08:25.930Z,87.35
2022-09-07T04:10:53.433Z,85.89
2022-09-07T04:13:22.275Z,84.54
2022-09-07T04:15:53.371Z,83.99
2022-09-07T04:18:21.512Z,84.19
2022-09-07T04:20:50.652Z,84.11
2022-09-07T04:23:18.467Z,83.91
2022-09-07T04:25:49.351Z,83.81
2022-09-07T04:28:17.212Z,84.26
2022-09-07T04:30:46.120Z,84.28
2022-09-07T04:33:14.259Z,85.89
2022-09-07T04:35:42.961Z,86.38
2022-09-07T04:38:14.311Z,86.92
2022-09-07T04:40:41.959Z,86.93
2022-09-07T04:43:12.913Z,88.39
2022-09-07T04:45:41.001Z,86.97
2022-09-07T04:48:09.812Z,85.27
2022-09-07T04:50:37.354Z,86.59
2022-09-07T04:53:04.819Z,87.84
2022-09-07T04:55:32.745Z,87.87
2022-09-07T04:58:00.236Z,88.45
2022-09-07T05:00:27.709Z,88.91
2022-09-07T05:02:55.267Z,88.89
2022-09-07T05:05:24.118Z,89.25
2022-09-07T05:07:51.643Z,89.66
2022-09-07T05:10:19.210Z,89.01
2022-09-07T05:12:47.118Z,89.51
2022-09-07T05:15:14.807Z,90.51
2022-09-07T05:17:42.363Z,90.51
2022-09-07T05:20:10.786Z,90.59
2022-09-07T05:22:41.037Z,91.37
2022-09-07T05:25:09.485Z,91.62
2022-09-07T05:27:36.991Z,91.25
2022-09-07T05:30:06.283Z,90.32
2022-09-07T05:32:34.270Z,90.59
2022-09-07T05:35:01.849Z,89.57
2022-09-07T05:37:29.373Z,89.94
2022-09-07T05:39:58.306Z,89.39
2022-09-07T05:42:26.749Z,88.92
2022-09-07T05:44:54.253Z,87.98
2022-09-07T05:47:21.753Z,88.61
2022-09-07T05:49:51.067Z,89.75
2022-09-07T05:52:20.500Z,90.60
2022-09-07T05:54:48.131Z,90.32
2022-09-07T05:57:16.952Z,91.11
2022-09-07T05:59:44.546Z,91.05
2022-09-07T06:02:14.961Z,90.02
2022-09-07T06:04:42.655Z,89.40
2022-09-07T06:07:21.599Z,89.44
2022-09-07T06:12:38.784Z,88.14
2022-09-07T06:15:07.344Z,86.27
2022-09-07T06:17:35.331Z,85.94
2022-09-07T06:20:03.683Z,86.05
2022-09-07T06:22:31.449Z,86.25
2022-09-07T06:24:59.063Z,86.30
2022-09-07T06:27:26.536Z,87.13
2022-09-07T06:29:55.466Z,88.84
2022-09-07T06:35:11.269Z,88.65
2022-09-07T06:37:38.954Z,88.08
2022-09-07T06:40:08.196Z,87.98
2022-09-07T06:42:35.753Z,87.77
2022-09-07T06:45:05.255Z,88.01
2022-09-07T06:47:32.743Z,88.75
2022-09-07T06:50:00.232Z,88.83
2022-09-07T06:52:28.255Z,88.31
2022-09-07T06:54:59.104Z,86.71
2022-09-07T06:57:27.044Z,87.13
2022-09-07T06:59:54.538Z,87.22
2022-09-07T07:02:23.340Z,87.15
2022-09-07T07:04:50.978Z,86.71
2022-09-07T07:07:18.497Z,87.23
2022-09-07T07:09:46.010Z,87.40
2022-09-07T07:12:13.488Z,86.75
2022-09-07T07:14:44.658Z,85.40
2022-09-07T07:17:12.505Z,85.81
2022-09-07T07:19:41.401Z,85.92
2022-09-07T07:22:45.555Z,86.42
2022-09-07T07:24:56.445Z,85.44
2022-09-07T07:27:24.079Z,85.65
2022-09-07T07:29:52.392Z,85.04
2022-09-07T07:32:19.895Z,86.09
2022-09-07T07:34:48.705Z,86.30
2022-09-07T07:37:17.209Z,85.92
2022-09-07T07:42:32.574Z,84.05
2022-09-07T07:47:50.472Z,84.54
2022-09-07T07:50:35.104Z,84.90
2022-09-07T07:55:50.192Z,84.28
2022-09-07T07:58:17.685Z,83.62
2022-09-07T08:01:00.710Z,82.85
2022-09-07T08:03:28.317Z,82.36
2022-09-07T08:05:57.157Z,83.43
2022-09-07T08:08:25.215Z,82.68
2022-09-07T08:10:52.928Z,82.42
2022-09-07T08:13:21.229Z,82.14
2022-09-07T08:15:48.853Z,82.84
2022-09-07T08:18:17.758Z,81.51
2022-09-07T08:20:45.403Z,81.78
2022-09-07T08:23:15.269Z,82.02
2022-09-07T08:25:51.550Z,81.03
2022-09-07T08:28:19.365Z,81.30
2022-09-07T08:30:46.839Z,80.81
2022-09-07T08:33:14.412Z,81.70
2022-09-07T08:35:43.123Z,81.33
2022-09-07T08:38:10.884Z,80.90
2022-09-07T08:40:39.809Z,80.69
2022-09-07T08:43:12.948Z,80.03
2022-09-07T08:45:44.113Z,80.36
2022-09-07T08:48:14.754Z,79.27
2022-09-07T08:50:56.306Z,78.80
2022-09-07T08:53:25.535Z,78.38
2022-09-07T08:55:57.279Z,79.12
2022-09-07T08:58:48.177Z,79.20
2022-09-07T09:01:31.728Z,77.78
2022-09-07T09:04:16.049Z,78.03
2022-09-07T09:06:52.386Z,78.42
2022-09-07T09:09:26.741Z,78.45
2022-09-07T09:12:06.200Z,78.12
2022-09-07T09:14:39.345Z,77.25
2022-09-07T09:17:10.766Z,77.05
2022-09-07T09:19:55.445Z,76.13
2022-09-07T09:22:25.589Z,76.19
2022-09-07T09:24:58.858Z,76.36
2022-09-07T09:27:27.753Z,76.59
2022-09-07T09:29:55.200Z,76.59
2022-09-07T09:32:35.281Z,76.65
2022-09-07T09:35:06.381Z,77.21
2022-09-07T09:37:35.208Z,76.07
2022-09-07T09:40:03.351Z,75.03
2022-09-07T09:42:34.768Z,75.45
2022-09-07T09:45:11.538Z,74.90
2022-09-07T09:47:39.759Z,75.46
2022-09-07T09:52:28.939Z,75.45
2022-09-07T09:53:06.684Z,75.28
2022-09-07T09:55:37.127Z,73.32
2022-09-07T10:04:06.293Z,71.95
2022-09-07T10:06:33.943Z,70.49
2022-09-07T10:09:02.709Z,71.54
2022-09-07T10:14:35.297Z,70.66
2022-09-07T10:17:12.137Z,69.86
2022-09-07T10:19:41.176Z,70.19
2022-09-07T10:22:22.816Z,69.92
2022-09-07T10:24:51.372Z,68.99
2022-09-07T10:27:30.543Z,67.62
2022-09-07T10:29:59.601Z,67.67
2022-09-07T10:32:34.934Z,67.57
2022-09-07T10:35:09.568Z,67.03
2022-09-07T10:37:44.076Z,67.25
2022-09-07T10:40:22.840Z,67.76
2022-09-07T10:45:54.168Z,66.36
2022-09-07T10:48:25.471Z,65.54
2022-09-07T10:50:56.095Z,66.32
2022-09-07T10:53:42.340Z,65.72
2022-09-07T10:56:12.162Z,64.71
2022-09-07T10:59:04.083Z,65.77
2022-09-07T11:01:42.411Z,63.55
2022-09-07T11:04:37.097Z,63.86
2022-09-07T11:07:14.950Z,62.68
2022-09-07T11:09:52.880Z,62.39
2022-09-07T11:12:27.812Z,62.76
2022-09-07T11:15:03.145Z,61.89
2022-09-07T11:17:38.728Z,61.67
2022-09-07T11:20:14.645Z,61.77
2022-09-07T11:22:44.490Z,61.21
2022-09-07T11:25:33.791Z,61.53
2022-09-07T11:28:03.743Z,61.55
2022-09-07T11:30:33.173Z,61.51
2022-09-07T11:33:05.186Z,60.96
2022-09-07T11:35:37.640Z,60.60
2022-09-07T11:38:14.151Z,59.84
2022-09-07T11:40:45.723Z,58.83
2022-09-07T11:43:18.332Z,58.96
2022-09-07T11:45:50.586Z,58.97
2022-09-07T11:48:21.914Z,58.15
2022-09-07T11:50:53.048Z,56.67
2022-09-07T11:53:23.234Z,56.30
2022-09-07T11:55:55.119Z,55.79
2022-09-07T11:58:33.538Z,56.08
2022-09-07T12:01:11.841Z,56.16
2022-09-07T12:04:05.269Z,55.18
2022-09-07T12:07:09.040Z,53.89
2022-09-07T12:09:48.940Z,53.92
2022-09-07T12:12:28.836Z,54.31
2022-09-07T12:15:04.030Z,52.42
2022-09-07T12:17:45.612Z,52.39
2022-09-07T12:20:16.693Z,53.58
2022-09-07T12:23:00.877Z,52.27
2022-09-07T12:25:32.145Z,52.79
2022-09-07T12:27:59.601Z,52.52
2022-09-07T12:30:57.857Z,52.34
2022-09-07T12:33:36.509Z,50.53
2022-09-07T12:36:50.281Z,50.20
2022-09-07T12:39:25.135Z,50.35
2022-09-07T12:44:42.030Z,51.41
2022-09-07T12:47:28.057Z,51.85
2022-09-07T12:50:06.523Z,49.73
2022-09-07T12:52:45.286Z,47.81
2022-09-07T12:55:28.397Z,47.34
2022-09-07T12:58:04.530Z,45.72
2022-09-07T13:00:44.484Z,45.98
2022-09-07T13:03:58.867Z,47.48
2022-09-07T13:09:31.887Z,49.62
2022-09-07T13:12:01.210Z,49.42
2022-09-07T13:14:29.762Z,49.68
2022-09-07T13:17:30.252Z,51.13
2022-09-07T13:20:20.270Z,52.66
2022-09-07T13:23:09.077Z,54.27
2022-09-07T13:25:45.486Z,54.01
2022-09-07T13:28:23.562Z,53.81
2022-09-07T13:31:00.625Z,53.73
2022-09-07T13:33:48.794Z,52.36
2022-09-07T13:36:33.403Z,50.63
2022-09-07T13:39:00.905Z,50.03
2022-09-07T13:41:35.909Z,49.19
2022-09-07T13:44:05.668Z,49.76
2022-09-07T13:46:42.082Z,49.83
2022-09-07T13:49:19.426Z,48.86
2022-09-07T13:51:51.027Z,48.77
2022-09-07T13:54:22.339Z,47.30
2022-09-07T13:56:58.231Z,46.85
2022-09-07T13:59:30.980Z,47.98
2022-09-07T14:01:58.878Z,48.80
2022-09-07T14:04:28.625Z,48.71
2022-09-07T14:07:03.115Z,49.72
2022-09-07T14:09:30.706Z,49.69
2022-09-07T14:11:58.577Z,49.55
2022-09-07T14:14:29.400Z,49.71
2022-09-07T14:17:03.587Z,49.85
2022-09-07T14:19:37.841Z,47.72
2022-09-07T14:22:07.756Z,47.59
2022-09-07T14:24:37.197Z,47.27
2022-09-07T14:27:05.365Z,47.01
2022-09-07T14:29:36.062Z,48.08
2022-09-07T14:32:04.980Z,48.80
2022-09-07T14:34:35.518Z,48.33
2022-09-07T14:37:06.357Z,48.31
2022-09-07T14:39:36.653Z,48.21
2022-09-07T14:42:04.539Z,47.81
2022-09-07T14:44:35.609Z,47.64
2022-09-07T14:47:07.678Z,47.13
2022-09-07T14:49:35.856Z,47.42
2022-09-07T14:52:03.862Z,47.06
2022-09-07T14:54:33.891Z,46.57
2022-09-07T14:57:04.699Z,46.52
2022-09-07T14:59:42.301Z,45.78
2022-09-07T15:02:35.190Z,46.36
2022-09-07T15:05:25.978Z,46.18
2022-09-07T15:07:56.136Z,46.21
2022-09-07T15:10:36.528Z,46.98
2022-09-07T15:13:06.208Z,46.70
2022-09-07T15:15:37.824Z,46.80
2022-09-07T15:18:09.195Z,44.84
2022-09-07T15:20:45.049Z,46.19
2022-09-07T15:23:14.326Z,46.36
2022-09-07T15:25:45.459Z,48.75
2022-09-07T15:34:02.314Z,47.83
2022-09-07T15:36:32.024Z,46.71
2022-09-07T15:39:00.667Z,46.44
2022-09-07T15:41:29.335Z,46.20
2022-09-07T15:43:57.239Z,46.89
2022-09-07T15:46:26.667Z,46.65
2022-09-07T15:48:55.919Z,48.03
2022-09-07T15:54:14.008Z,47.70
2022-09-07T15:57:47.510Z,46.69
2022-09-07T15:59:30.663Z,47.70
2022-09-07T16:01:59.848Z,47.43
2022-09-07T16:04:27.781Z,47.50
2022-09-07T16:06:55.719Z,48.24
2022-09-07T16:09:23.263Z,48.57
2022-09-07T16:11:51.292Z,48.23
2022-09-07T16:14:19.465Z,48.07
2022-09-07T16:19:36.281Z,47.95
2022-09-07T16:22:04.947Z,47.94
2022-09-07T16:24:34.097Z,48.65
2022-09-07T16:27:01.805Z,49.85
2022-09-07T16:29:29.540Z,48.57
2022-09-07T16:34:46.044Z,47.92
2022-09-07T16:37:14.418Z,48.16
2022-09-07T16:39:42.147Z,48.09
2022-09-07T16:42:09.634Z,47.95
2022-09-07T16:44:37.152Z,47.34
2022-09-07T16:47:04.772Z,47.63
2022-09-07T16:49:32.225Z,48.64
2022-09-07T16:52:00.983Z,48.26
2022-09-07T16:54:28.480Z,49.55
2022-09-07T16:56:55.920Z,49.91
2022-09-07T16:59:26.620Z,50.22
2022-09-07T17:01:54.388Z,48.68
2022-09-07T17:04:22.092Z,49.51
2022-09-07T17:06:51.831Z,49.52
2022-09-07T17:09:20.677Z,50.21
2022-09-07T17:11:48.319Z,49.44
2022-09-07T17:14:16.532Z,49.65
2022-09-07T17:16:44.080Z,49.67
2022-09-07T17:22:00.669Z,50.64
2022-09-07T17:24:32.294Z,49.75
2022-09-07T17:26:59.949Z,49.49
2022-09-07T17:29:30.259Z,50.05
2022-09-07T17:34:46.611Z,51.05
2022-09-07T17:37:14.076Z,51.11
2022-09-07T17:39:42.960Z,50.71
2022-09-07T17:42:10.434Z,50.27
2022-09-07T17:44:38.613Z,51.00
2022-09-07T17:47:06.737Z,51.65
2022-09-07T17:49:34.723Z,51.83
2022-09-07T17:52:02.724Z,52.01
2022-09-07T17:54:30.384Z,51.98
2022-09-07T17:56:59.616Z,52.45
2022-09-07T18:02:23.938Z,52.07
2022-09-07T18:04:53.903Z,52.08
2022-09-07T18:07:23.172Z,52.54
2022-09-07T18:09:53.210Z,52.66
2022-09-07T18:12:22.589Z,53.61
2022-09-07T18:14:51.723Z,53.91
2022-09-07T18:17:20.457Z,52.94
2022-09-07T18:19:48.299Z,52.81
2022-09-07T18:22:16.049Z,53.14
2022-09-07T18:26:33.742Z,53.13
2022-09-07T18:29:03.085Z,54.59
2022-09-07T18:30:39.750Z,54.77
2022-09-07T18:33:07.494Z,54.98
2022-09-07T18:35:35.318Z,55.49
2022-09-07T18:38:04.217Z,55.39
2022-09-07T18:40:35.357Z,55.98
2022-09-07T18:43:16.365Z,55.82
2022-09-07T18:45:48.526Z,55.55
2022-09-07T18:48:27.519Z,55.60
2022-09-07T18:50:55.780Z,55.75
2022-09-07T18:53:23.592Z,56.04
2022-09-07T18:55:51.454Z,55.80
2022-09-07T18:58:20.591Z,55.69
2022-09-07T19:00:53.787Z,55.98
2022-09-07T19:03:23.543Z,54.16
2022-09-07T19:05:53.064Z,55.34
2022-09-07T19:08:21.345Z,55.70
2022-09-07T19:10:50.923Z,56.58
2022-09-07T19:13:45.875Z,57.17
2022-09-07T19:16:18.078Z,57.81
2022-09-07T19:18:46.923Z,58.03
2022-09-07T19:21:25.861Z,57.53
2022-09-07T19:24:03.096Z,57.86
2022-09-07T19:26:33.485Z,58.02
2022-09-07T19:29:12.619Z,57.56
2022-09-07T19:31:45.461Z,57.92
2022-09-07T19:34:40.958Z,58.67
2022-09-07T19:37:10.035Z,59.12
2022-09-07T19:39:38.365Z,60.26
2022-09-07T19:42:07.102Z,60.12
2022-09-07T19:44:55.627Z,60.52
2022-09-07T19:47:26.155Z,61.03
2022-09-07T19:49:58.798Z,60.66
2022-09-07T19:52:30.390Z,60.89
2022-09-07T19:55:02.983Z,61.03
2022-09-07T19:57:46.450Z,61.41
2022-09-07T20:00:16.201Z,62.10
2022-09-07T20:02:43.809Z,62.62
2022-09-07T20:05:12.016Z,63.14
2022-09-07T20:07:39.849Z,63.11
2022-09-07T20:10:10.530Z,63.74
2022-09-07T20:12:38.249Z,63.78
2022-09-07T20:15:07.046Z,64.04
2022-09-07T20:17:37.652Z,64.82
2022-09-07T20:20:06.751Z,65.16
2022-09-07T20:22:36.881Z,64.51
2022-09-07T20:25:05.118Z,64.34
2022-09-07T20:27:35.770Z,64.16
2022-09-07T20:30:05.941Z,64.37
2022-09-07T20:32:39.481Z,64.86
2022-09-07T20:35:18.343Z,65.09
2022-09-07T20:37:46.184Z,65.63
2022-09-07T20:40:13.816Z,65.78
2022-09-07T20:42:42.785Z,65.71
2022-09-07T20:45:11.430Z,65.74
2022-09-07T20:47:40.443Z,65.83
2022-09-07T20:50:08.533Z,65.14
2022-09-07T20:52:37.491Z,65.73
2022-09-07T20:55:06.057Z,66.70
2022-09-07T20:57:34.268Z,66.88
2022-09-07T21:00:02.161Z,66.95
2022-09-07T21:02:33.363Z,68.24
2022-09-07T21:05:02.349Z,69.13
2022-09-07T21:07:30.061Z,68.51
2022-09-07T21:09:57.663Z,68.54
2022-09-07T21:12:25.281Z,68.76
2022-09-07T21:14:52.835Z,69.11
2022-09-07T21:17:20.347Z,69.07
2022-09-07T21:19:48.025Z,69.25
2022-09-07T21:22:16.981Z,69.11
2022-09-07T21:24:44.617Z,69.15
2022-09-07T21:27:12.278Z,69.76
2022-09-07T21:29:40.058Z,69.62
2022-09-07T21:32:08.084Z,69.36
2022-09-07T21:34:35.915Z,69.24
2022-09-07T21:37:06.533Z,69.43
2022-09-07T21:39:35.894Z,69.16
2022-09-07T21:42:04.609Z,69.28
2022-09-07T21:44:32.397Z,69.82
2022-09-07T21:47:00.457Z,69.92
2022-09-07T21:49:34.526Z,70.11
2022-09-07T21:52:02.661Z,70.52
2022-09-07T21:54:33.130Z,70.92
2022-09-07T21:57:04.680Z,71.34
2022-09-07T21:59:32.499Z,72.65
2022-09-07T22:02:00.602Z,72.68
2022-09-07T22:04:38.058Z,72.67
2022-09-07T22:07:19.759Z,72.15
2022-09-07T22:09:50.088Z,72.62
2022-09-07T22:12:20.505Z,72.66
2022-09-07T22:14:48.342Z,72.20
2022-09-07T22:17:17.582Z,73.04
2022-09-07T22:19:49.073Z,74.72
2022-09-07T22:22:18.938Z,74.37
2022-09-07T22:24:46.450Z,74.00
2022-09-07T22:27:14.481Z,73.94
2022-09-07T22:29:43.286Z,73.93
2022-09-07T22:32:10.753Z,73.34
2022-09-07T22:34:38.222Z,73.73
2022-09-07T22:37:05.784Z,75.42
2022-09-07T22:39:33.472Z,75.44
2022-09-07T22:42:00.957Z,74.63
2022-09-07T22:44:29.915Z,73.61
2022-09-07T22:46:58.849Z,73.89
2022-09-07T22:49:26.848Z,74.00
2022-09-07T22:51:55.481Z,74.78
2022-09-07T22:54:23.151Z,74.27
2022-09-07T22:56:50.628Z,74.19
2022-09-07T22:59:18.108Z,74.34
2022-09-07T23:01:45.811Z,75.98
2022-09-07T23:04:15.090Z,76.48
2022-09-07T23:06:43.711Z,75.74
2022-09-07T23:09:12.664Z,75.37
2022-09-07T23:11:40.326Z,76.21
2022-09-07T23:14:11.864Z,78.00
2022-09-07T23:16:39.665Z,78.52
2022-09-07T23:19:07.243Z,78.96
2022-09-07T23:21:36.074Z,79.24
2022-09-07T23:24:03.703Z,78.96
2022-09-07T23:26:32.606Z,77.88
2022-09-07T23:29:01.796Z,77.16
2022-09-07T23:31:32.764Z,76.19
2022-09-07T23:34:00.994Z,75.98
2022-09-07T23:36:28.909Z,75.68
2022-09-07T23:38:58.929Z,75.81
2022-09-07T23:41:26.700Z,77.00
2022-09-07T23:43:54.540Z,77.99
2022-09-07T23:46:22.173Z,78.96
2022-09-07T23:48:50.264Z,79.14
2022-09-07T23:51:23.386Z,77.99
2022-09-07T23:53:51.211Z,77.84
2022-09-07T23:56:20.479Z,78.95
2022-09-07T23:58:48.017Z,78.49
